createdAt,value
2018-12-31T00:00:50.065Z,5.20
2018-12-31T00:03:17.653Z,5.10
2018-12-31T00:05:44.904Z,5.10
2018-12-31T00:08:12.192Z,5.10
2018-12-31T00:10:40.138Z,5.20
2018-12-31T00:13:07.681Z,5.20
2018-12-31T00:15:34.905Z,5.20
2018-12-31T00:18:02.162Z,5.20
2018-12-31T00:20:29.399Z,5.20
2018-12-31T00:22:56.655Z,5.20
2018-12-31T00:25:23.874Z,5.20
2018-12-31T00:27:51.132Z,5.20
2018-12-31T00:30:18.562Z,5.20
2018-12-31T00:32:49.072Z,5.20
2018-12-31T00:35:16.640Z,5.30
2018-12-31T00:37:45.090Z,5.30
2018-12-31T00:40:12.876Z,5.20
2018-12-31T00:42:40.137Z,5.20
2018-12-31T00:45:07.384Z,5.20
2018-12-31T00:47:34.967Z,5.30
2018-12-31T00:50:02.277Z,5.30
2018-12-31T00:52:29.532Z,5.30
2018-12-31T00:54:56.760Z,5.20
2018-12-31T00:57:24.014Z,5.30
2018-12-31T00:59:51.249Z,5.20
2018-12-31T01:02:18.572Z,5.20
2018-12-31T01:04:45.833Z,5.30
2018-12-31T01:07:13.058Z,5.20
2018-12-31T01:09:40.924Z,5.30
2018-12-31T01:12:08.184Z,5.20
2018-12-31T01:14:35.532Z,5.20
2018-12-31T01:17:02.781Z,5.30
2018-12-31T01:19:30.356Z,5.30
2018-12-31T01:21:57.902Z,5.30
2018-12-31T01:24:25.470Z,5.30
2018-12-31T01:26:52.897Z,5.30
2018-12-31T01:29:20.166Z,5.40
2018-12-31T01:31:47.746Z,5.30
2018-12-31T01:34:14.992Z,5.40
2018-12-31T01:36:42.232Z,5.30
2018-12-31T01:39:09.790Z,5.20
2018-12-31T01:41:37.029Z,5.30
2018-12-31T01:44:04.317Z,5.30
2018-12-31T01:46:31.562Z,5.30
2018-12-31T01:48:58.724Z,5.30
2018-12-31T01:51:26.258Z,5.30
2018-12-31T01:53:53.945Z,5.30
2018-12-31T01:56:21.188Z,5.30
2018-12-31T01:58:48.445Z,5.30
2018-12-31T02:01:15.677Z,5.30
2018-12-31T02:03:42.922Z,5.40
2018-12-31T02:06:10.149Z,5.30
2018-12-31T02:08:37.437Z,5.40
2018-12-31T02:11:04.673Z,5.40
2018-12-31T02:13:32.037Z,5.30
2018-12-31T02:15:59.270Z,5.40
2018-12-31T02:18:27.189Z,5.40
2018-12-31T02:20:54.601Z,5.40
2018-12-31T02:23:21.974Z,5.30
2018-12-31T02:25:49.300Z,5.20
2018-12-31T02:28:16.876Z,5.30
2018-12-31T02:30:47.189Z,5.30
2018-12-31T02:33:14.435Z,5.40
2018-12-31T02:35:41.570Z,5.40
2018-12-31T02:38:08.830Z,5.50
2018-12-31T02:40:36.504Z,5.40
2018-12-31T02:43:03.977Z,5.50
2018-12-31T02:45:31.261Z,5.40
2018-12-31T02:47:58.593Z,5.30
2018-12-31T02:50:25.958Z,5.40
2018-12-31T02:52:53.892Z,5.40
2018-12-31T02:55:21.153Z,5.30
2018-12-31T02:57:48.382Z,5.40
2018-12-31T03:00:15.953Z,5.40
2018-12-31T03:02:43.081Z,5.40
2018-12-31T03:05:10.321Z,5.40
2018-12-31T03:07:37.539Z,5.40
2018-12-31T03:10:04.898Z,5.40
2018-12-31T03:12:32.121Z,5.40
2018-12-31T03:14:59.383Z,5.40
2018-12-31T03:17:26.618Z,5.50
2018-12-31T03:20:01.437Z,5.50
2018-12-31T03:22:28.734Z,5.40
2018-12-31T03:24:56.254Z,5.40
2018-12-31T03:27:27.581Z,5.50
2018-12-31T03:29:54.845Z,5.40
2018-12-31T03:32:22.642Z,5.40
2018-12-31T03:34:50.178Z,5.30
2018-12-31T03:37:17.410Z,5.40
2018-12-31T03:39:44.889Z,5.50
2018-12-31T03:42:12.110Z,5.50
2018-12-31T03:44:39.457Z,5.50
2018-12-31T03:47:06.681Z,5.50
2018-12-31T03:49:33.824Z,5.50
2018-12-31T03:52:01.061Z,5.40
2018-12-31T03:54:28.405Z,5.50
2018-12-31T03:56:55.642Z,5.60
2018-12-31T03:59:22.892Z,5.50
2018-12-31T04:01:50.142Z,5.50
2018-12-31T04:04:17.376Z,5.50
2018-12-31T04:06:44.877Z,5.60
2018-12-31T04:09:12.009Z,5.50
2018-12-31T04:11:39.263Z,5.50
2018-12-31T04:14:06.489Z,5.40
2018-12-31T04:16:34.072Z,5.60
2018-12-31T04:19:01.299Z,5.60
2018-12-31T04:21:28.582Z,5.50
2018-12-31T04:23:56.237Z,5.50
2018-12-31T04:26:23.488Z,5.50
2018-12-31T04:28:50.717Z,5.50
2018-12-31T04:31:17.976Z,5.50
2018-12-31T04:33:45.201Z,5.60
2018-12-31T04:36:12.453Z,5.60
2018-12-31T04:38:39.681Z,5.60
2018-12-31T04:41:07.118Z,5.60
2018-12-31T04:43:34.885Z,5.60
2018-12-31T04:46:02.417Z,5.70
2018-12-31T04:48:29.653Z,5.70
2018-12-31T04:50:56.914Z,5.60
2018-12-31T04:53:24.137Z,5.70
2018-12-31T04:55:55.858Z,5.60
2018-12-31T04:58:25.313Z,5.60
2018-12-31T05:00:52.574Z,5.70
2018-12-31T05:03:27.330Z,5.70
2018-12-31T05:05:54.673Z,5.70
2018-12-31T05:08:22.509Z,5.80
2018-12-31T05:10:49.793Z,5.80
2018-12-31T05:13:17.046Z,5.80
2018-12-31T05:15:44.317Z,5.70
2018-12-31T05:18:12.263Z,5.70
2018-12-31T05:20:39.653Z,5.60
2018-12-31T05:23:06.909Z,5.70
2018-12-31T05:25:34.188Z,5.70
2018-12-31T05:28:01.433Z,5.70
2018-12-31T05:30:28.944Z,5.70
2018-12-31T05:32:56.191Z,5.70
2018-12-31T05:35:23.953Z,5.70
2018-12-31T05:37:51.292Z,5.70
2018-12-31T05:40:18.538Z,5.60
2018-12-31T05:42:45.801Z,5.70
2018-12-31T05:45:13.044Z,5.70
2018-12-31T05:47:40.317Z,5.60
2018-12-31T05:50:07.562Z,5.60
2018-12-31T05:52:34.832Z,5.70
2018-12-31T05:55:02.366Z,5.70
2018-12-31T05:57:29.756Z,5.60
2018-12-31T05:59:57.590Z,5.60
2018-12-31T06:02:24.905Z,5.60
2018-12-31T06:04:52.312Z,5.60
2018-12-31T06:07:19.584Z,5.60
2018-12-31T06:09:46.838Z,5.70
2018-12-31T06:12:14.102Z,5.70
2018-12-31T06:14:42.021Z,5.70
2018-12-31T06:17:09.294Z,5.70
2018-12-31T06:19:36.637Z,5.70
2018-12-31T06:22:03.797Z,5.70
2018-12-31T06:24:31.037Z,5.70
2018-12-31T06:26:58.311Z,5.70
2018-12-31T06:29:25.548Z,5.70
2018-12-31T06:31:52.819Z,5.80
2018-12-31T06:34:20.144Z,5.80
2018-12-31T06:36:47.441Z,5.70
2018-12-31T06:39:14.675Z,5.70
2018-12-31T06:41:41.945Z,5.70
2018-12-31T06:44:09.477Z,5.70
2018-12-31T06:46:37.065Z,5.70
2018-12-31T06:49:04.596Z,5.70
2018-12-31T06:51:31.923Z,5.70
2018-12-31T06:53:59.139Z,5.70
2018-12-31T06:56:26.413Z,5.70
2018-12-31T06:58:53.668Z,5.70
2018-12-31T07:01:20.941Z,5.60
2018-12-31T07:03:48.175Z,5.70
2018-12-31T07:06:15.400Z,5.70
2018-12-31T07:08:42.652Z,5.60
2018-12-31T07:11:09.913Z,5.70
2018-12-31T07:13:37.497Z,5.70
2018-12-31T07:16:04.717Z,5.70
2018-12-31T07:18:31.976Z,5.80
2018-12-31T07:20:59.115Z,5.80
2018-12-31T07:23:26.378Z,5.70
2018-12-31T07:25:53.614Z,5.70
2018-12-31T07:28:20.889Z,5.80
2018-12-31T07:30:48.513Z,5.80
2018-12-31T07:33:15.837Z,5.80
2018-12-31T07:35:43.964Z,5.80
2018-12-31T07:38:11.285Z,5.80
2018-12-31T07:40:38.515Z,5.80
2018-12-31T07:43:05.798Z,5.70
2018-12-31T07:45:33.029Z,5.70
2018-12-31T07:48:00.397Z,5.70
2018-12-31T07:50:28.244Z,5.70
2018-12-31T07:53:02.324Z,5.70
2018-12-31T07:55:31.823Z,5.70
2018-12-31T07:58:01.541Z,5.70
2018-12-31T08:00:28.765Z,5.70
2018-12-31T08:02:56.017Z,5.80
2018-12-31T08:05:23.242Z,5.70
2018-12-31T08:07:50.873Z,5.70
2018-12-31T08:10:18.110Z,5.70
2018-12-31T08:12:45.380Z,5.90
2018-12-31T08:15:21.946Z,6.00
2018-12-31T08:17:49.496Z,5.90
2018-12-31T08:20:16.824Z,6.00
2018-12-31T08:22:44.505Z,6.00
2018-12-31T08:25:11.734Z,6.10
2018-12-31T08:27:38.998Z,6.00
2018-12-31T08:30:06.278Z,6.00
2018-12-31T08:32:33.529Z,5.90
2018-12-31T08:35:00.753Z,6.00
2018-12-31T08:37:28.100Z,5.90
2018-12-31T08:39:55.329Z,6.00
2018-12-31T08:42:22.629Z,6.00
2018-12-31T08:44:49.873Z,6.00
2018-12-31T08:47:17.128Z,6.10
2018-12-31T08:49:44.386Z,6.10
2018-12-31T08:52:11.708Z,6.10
2018-12-31T08:54:38.966Z,6.10
2018-12-31T08:57:06.202Z,6.10
2018-12-31T08:59:33.948Z,6.10
2018-12-31T09:02:01.591Z,6.10
2018-12-31T09:04:29.041Z,6.30
2018-12-31T09:06:56.272Z,6.30
2018-12-31T09:09:23.520Z,6.20
2018-12-31T09:11:50.759Z,6.20
2018-12-31T09:14:18.348Z,6.10
2018-12-31T09:16:45.909Z,6.20
2018-12-31T09:19:13.173Z,6.30
2018-12-31T09:21:40.402Z,6.20
2018-12-31T09:24:15.693Z,6.30
2018-12-31T09:26:42.917Z,6.20
2018-12-31T09:29:10.180Z,6.30
2018-12-31T09:31:37.415Z,6.30
2018-12-31T09:34:04.669Z,6.40
2018-12-31T09:36:31.898Z,6.40
2018-12-31T09:38:59.450Z,6.30
2018-12-31T09:41:26.690Z,6.40
2018-12-31T09:43:54.213Z,6.50
2018-12-31T09:46:22.021Z,6.60
2018-12-31T09:48:49.377Z,6.70
2018-12-31T09:51:16.712Z,6.60
2018-12-31T09:53:43.998Z,6.70
2018-12-31T09:56:11.230Z,6.60
2018-12-31T09:58:38.497Z,6.60
2018-12-31T10:01:05.716Z,6.60
2018-12-31T10:03:32.978Z,6.70
2018-12-31T10:06:00.549Z,6.70
2018-12-31T10:08:27.797Z,6.70
2018-12-31T10:10:55.378Z,6.70
2018-12-31T10:13:23.021Z,6.80
2018-12-31T10:15:50.298Z,6.70
2018-12-31T10:18:17.521Z,6.70
2018-12-31T10:20:44.781Z,6.70
2018-12-31T10:23:12.331Z,6.70
2018-12-31T10:25:39.581Z,6.70
2018-12-31T10:28:07.159Z,6.60
2018-12-31T10:30:34.501Z,6.80
2018-12-31T10:33:01.816Z,6.80
2018-12-31T10:35:29.069Z,6.80
2018-12-31T10:37:56.301Z,6.90
2018-12-31T10:40:23.852Z,6.80
2018-12-31T10:42:51.072Z,6.80
2018-12-31T10:45:18.628Z,6.80
2018-12-31T10:47:45.854Z,6.80
2018-12-31T10:50:13.472Z,6.90
2018-12-31T10:52:40.703Z,6.90
2018-12-31T10:55:08.349Z,7.00
2018-12-31T10:57:35.568Z,7.00
2018-12-31T11:00:02.927Z,7.00
2018-12-31T11:02:30.519Z,6.90
2018-12-31T11:04:57.769Z,7.00
2018-12-31T11:07:24.910Z,7.00
2018-12-31T11:09:52.165Z,7.00
2018-12-31T11:12:19.396Z,7.00
2018-12-31T11:14:46.802Z,7.00
2018-12-31T11:17:14.041Z,7.00
2018-12-31T11:19:41.689Z,7.20
2018-12-31T11:22:08.913Z,7.20
2018-12-31T11:24:36.178Z,7.30
2018-12-31T11:27:03.414Z,7.40
2018-12-31T11:29:31.007Z,7.50
2018-12-31T11:31:58.249Z,7.50
2018-12-31T11:34:25.817Z,7.50
2018-12-31T11:36:53.474Z,7.60
2018-12-31T11:39:20.793Z,7.70
2018-12-31T11:41:48.061Z,7.60
2018-12-31T11:44:15.385Z,7.60
2018-12-31T11:46:42.993Z,7.70
2018-12-31T11:49:10.553Z,7.60
2018-12-31T11:51:37.807Z,7.50
2018-12-31T11:54:05.064Z,7.60
2018-12-31T11:56:32.324Z,7.60
2018-12-31T11:58:59.544Z,7.60
2018-12-31T12:01:27.117Z,7.50
2018-12-31T12:03:54.360Z,7.60
2018-12-31T12:06:21.616Z,7.60
2018-12-31T12:08:49.485Z,7.50
2018-12-31T12:11:16.736Z,7.60
2018-12-31T12:13:44.297Z,7.60
2018-12-31T12:16:11.577Z,7.60
2018-12-31T12:18:39.213Z,7.60
2018-12-31T12:21:06.595Z,7.60
2018-12-31T12:23:34.433Z,7.70
2018-12-31T12:26:01.790Z,7.60
2018-12-31T12:28:29.117Z,7.60
2018-12-31T12:30:56.701Z,7.60
2018-12-31T12:33:24.257Z,7.60
2018-12-31T12:35:51.619Z,7.50
2018-12-31T12:38:19.578Z,7.60
2018-12-31T12:40:46.946Z,7.60
2018-12-31T12:43:14.277Z,7.60
2018-12-31T12:45:41.545Z,7.70
2018-12-31T12:48:09.205Z,7.80
2018-12-31T12:50:36.565Z,7.90
2018-12-31T12:53:04.382Z,7.80
2018-12-31T12:55:31.748Z,7.90
2018-12-31T12:57:59.327Z,7.80
2018-12-31T13:00:26.689Z,7.90
2018-12-31T13:02:53.929Z,7.90
2018-12-31T13:05:21.705Z,7.80
2018-12-31T13:07:49.268Z,7.70
2018-12-31T13:10:16.586Z,7.70
2018-12-31T13:12:43.975Z,7.60
2018-12-31T13:15:11.628Z,7.60
2018-12-31T13:17:39.193Z,7.60
2018-12-31T13:20:06.520Z,7.60
2018-12-31T13:22:34.106Z,7.60
2018-12-31T13:25:01.789Z,7.60
2018-12-31T13:27:29.436Z,7.70
2018-12-31T13:29:57.084Z,7.60
2018-12-31T13:32:24.745Z,7.60
2018-12-31T13:34:52.412Z,7.60
2018-12-31T13:37:19.977Z,7.60
2018-12-31T13:39:47.206Z,7.70
2018-12-31T13:42:14.573Z,7.70
2018-12-31T13:44:42.153Z,7.60
2018-12-31T13:47:09.520Z,7.50
2018-12-31T13:49:36.757Z,7.50
2018-12-31T13:52:04.169Z,7.50
2018-12-31T13:54:31.412Z,7.60
2018-12-31T13:56:59.113Z,7.60
2018-12-31T13:59:26.453Z,7.50
2018-12-31T14:01:53.813Z,7.60
2018-12-31T14:04:21.152Z,7.50
2018-12-31T14:06:48.733Z,7.60
2018-12-31T14:09:16.065Z,7.60
2018-12-31T14:11:43.647Z,7.50
2018-12-31T14:14:11.176Z,7.60
2018-12-31T14:16:38.453Z,7.70
2018-12-31T14:19:05.685Z,7.60
2018-12-31T14:21:33.392Z,7.60
2018-12-31T14:24:00.716Z,7.60
2018-12-31T14:26:28.165Z,7.50
2018-12-31T14:28:55.741Z,7.60
2018-12-31T14:31:23.078Z,7.50
2018-12-31T14:33:50.758Z,7.60
2018-12-31T14:36:18.077Z,7.60
2018-12-31T14:38:45.362Z,7.60
2018-12-31T14:41:13.002Z,7.60
2018-12-31T14:43:40.356Z,7.70
2018-12-31T14:46:07.831Z,7.70
2018-12-31T14:48:35.194Z,7.60
2018-12-31T14:51:02.517Z,7.60
2018-12-31T14:53:30.041Z,7.60
2018-12-31T14:55:57.310Z,7.60
2018-12-31T14:58:24.693Z,7.60
2018-12-31T15:00:52.014Z,7.50
2018-12-31T15:03:19.661Z,7.40
2018-12-31T15:05:46.998Z,7.60
2018-12-31T15:08:14.348Z,7.60
2018-12-31T15:10:41.576Z,7.70
2018-12-31T15:13:09.552Z,7.60
2018-12-31T15:15:36.876Z,7.60
2018-12-31T15:18:04.565Z,7.50
2018-12-31T15:20:32.247Z,7.40
2018-12-31T15:23:00.201Z,7.40
2018-12-31T15:25:27.532Z,7.30
2018-12-31T15:27:54.789Z,7.40
2018-12-31T15:30:22.062Z,7.30
2018-12-31T15:32:49.713Z,7.30
2018-12-31T15:35:17.373Z,7.30
2018-12-31T15:37:44.642Z,7.30
2018-12-31T15:40:12.290Z,7.20
2018-12-31T15:42:39.655Z,7.30
2018-12-31T15:45:07.370Z,7.40
2018-12-31T15:47:34.730Z,7.20
2018-12-31T15:50:02.186Z,7.20
2018-12-31T15:52:29.448Z,7.30
2018-12-31T15:54:56.684Z,7.30
2018-12-31T15:57:24.006Z,7.20
2018-12-31T15:59:51.360Z,7.20
2018-12-31T16:02:18.601Z,7.30
2018-12-31T16:04:46.780Z,7.40
2018-12-31T16:07:14.413Z,7.60
2018-12-31T16:09:41.678Z,7.40
2018-12-31T16:12:09.021Z,7.40
2018-12-31T16:14:36.577Z,7.30
2018-12-31T16:17:03.918Z,7.30
2018-12-31T16:19:31.589Z,7.20
2018-12-31T16:21:58.911Z,7.20
2018-12-31T16:24:26.292Z,7.20
2018-12-31T16:26:54.194Z,7.20
2018-12-31T16:29:21.716Z,7.40
2018-12-31T16:31:48.948Z,7.30
2018-12-31T16:34:16.313Z,7.20
2018-12-31T16:36:43.545Z,7.20
2018-12-31T16:39:11.145Z,7.10
2018-12-31T16:41:38.700Z,7.10
2018-12-31T16:44:05.973Z,7.00
2018-12-31T16:46:33.301Z,7.00
2018-12-31T16:49:00.570Z,7.00
2018-12-31T16:51:27.888Z,7.10
2018-12-31T16:53:55.789Z,7.00
2018-12-31T16:56:23.109Z,7.00
2018-12-31T16:58:50.470Z,7.10
2018-12-31T17:01:18.353Z,7.00
2018-12-31T17:03:45.973Z,7.00
2018-12-31T17:06:13.597Z,7.00
2018-12-31T17:08:42.101Z,7.00
2018-12-31T17:11:09.638Z,6.90
2018-12-31T17:13:37.448Z,6.90
2018-12-31T17:16:05.475Z,6.90
2018-12-31T17:18:32.856Z,6.90
2018-12-31T17:21:00.189Z,6.90
2018-12-31T17:23:27.458Z,6.90
2018-12-31T17:25:56.533Z,7.00
2018-12-31T17:28:29.040Z,6.90
2018-12-31T17:30:57.556Z,6.80
2018-12-31T17:33:25.928Z,6.80
2018-12-31T17:35:53.628Z,6.90
2018-12-31T17:38:22.563Z,6.90
2018-12-31T17:40:50.273Z,6.90
2018-12-31T17:43:18.763Z,6.80
2018-12-31T17:45:46.420Z,6.80
2018-12-31T17:48:14.318Z,6.80
2018-12-31T17:50:42.331Z,6.80
2018-12-31T17:53:09.962Z,6.80
2018-12-31T17:55:38.681Z,6.80
2018-12-31T17:58:06.360Z,6.80
2018-12-31T18:00:35.372Z,6.70
2018-12-31T18:03:04.287Z,6.80
2018-12-31T18:05:31.720Z,6.90
2018-12-31T18:07:59.442Z,7.10
2018-12-31T18:10:27.770Z,6.90
2018-12-31T18:12:55.526Z,6.80
2018-12-31T18:15:23.577Z,6.70
2018-12-31T18:17:51.376Z,6.70
2018-12-31T18:20:19.087Z,6.70
2018-12-31T18:22:50.540Z,6.70
2018-12-31T18:25:18.776Z,6.70
2018-12-31T18:27:47.521Z,6.70
2018-12-31T18:30:15.754Z,6.70
2018-12-31T18:32:45.199Z,6.70
2018-12-31T18:35:13.037Z,6.80
2018-12-31T18:37:42.113Z,6.80
2018-12-31T18:40:10.144Z,6.80
2018-12-31T18:42:38.381Z,6.80
2018-12-31T18:45:05.732Z,7.00
2018-12-31T18:47:32.964Z,6.80
2018-12-31T18:50:00.311Z,6.70
2018-12-31T18:52:27.538Z,6.80
2018-12-31T18:54:54.890Z,6.80
2018-12-31T18:57:22.119Z,6.70
2018-12-31T18:59:49.473Z,6.60
2018-12-31T19:02:17.103Z,6.70
2018-12-31T19:04:44.449Z,6.70
2018-12-31T19:07:11.676Z,6.70
2018-12-31T19:09:38.933Z,6.90
2018-12-31T19:12:06.149Z,6.90
2018-12-31T19:14:33.409Z,6.70
2018-12-31T19:17:01.077Z,6.70
2018-12-31T19:19:28.300Z,6.80
2018-12-31T19:21:55.864Z,7.00
2018-12-31T19:24:23.199Z,6.90
2018-12-31T19:26:50.457Z,6.80
2018-12-31T19:29:17.685Z,6.80
2018-12-31T19:31:45.341Z,6.70
2018-12-31T19:34:12.664Z,6.70
2018-12-31T19:36:39.912Z,6.60
2018-12-31T19:39:07.145Z,6.50
2018-12-31T19:41:34.404Z,6.60
2018-12-31T19:44:01.632Z,6.50
2018-12-31T19:46:29.176Z,6.60
2018-12-31T19:48:56.500Z,6.70
2018-12-31T19:51:23.749Z,6.60
2018-12-31T19:53:50.977Z,6.60
2018-12-31T19:56:18.231Z,6.60
2018-12-31T19:58:45.842Z,6.60
2018-12-31T20:01:13.740Z,6.60
2018-12-31T20:03:41.061Z,6.60
2018-12-31T20:06:08.417Z,6.70
2018-12-31T20:08:35.749Z,6.80
2018-12-31T20:11:03.105Z,6.70
2018-12-31T20:13:30.381Z,6.80
2018-12-31T20:15:57.742Z,6.70
2018-12-31T20:18:25.058Z,6.70
2018-12-31T20:20:52.411Z,6.60
2018-12-31T20:23:20.413Z,6.60
2018-12-31T20:25:47.765Z,6.50
2018-12-31T20:28:15.445Z,6.60
2018-12-31T20:30:43.297Z,6.60
2018-12-31T20:33:10.959Z,6.60
2018-12-31T20:35:38.184Z,6.60
2018-12-31T20:38:05.573Z,6.60
2018-12-31T20:40:33.245Z,6.60
2018-12-31T20:43:01.005Z,6.70
2018-12-31T20:45:28.638Z,6.80
2018-12-31T20:48:01.630Z,6.80
2018-12-31T20:50:25.410Z,6.80
2018-12-31T20:52:53.069Z,6.80
2018-12-31T20:55:20.733Z,6.70
2018-12-31T20:57:48.093Z,6.80
2018-12-31T21:00:15.816Z,6.80
2018-12-31T21:02:43.064Z,6.90
2018-12-31T21:05:11.509Z,6.80
2018-12-31T21:07:39.053Z,6.90
2018-12-31T21:10:09.103Z,6.90
2018-12-31T21:12:36.453Z,6.90
2018-12-31T21:15:03.825Z,7.00
2018-12-31T21:17:31.110Z,6.80
2018-12-31T21:19:58.968Z,6.90
2018-12-31T21:22:26.237Z,7.00
2018-12-31T21:24:53.776Z,6.80
2018-12-31T21:27:21.034Z,6.80
2018-12-31T21:29:48.375Z,6.70
2018-12-31T21:32:16.062Z,6.70
2018-12-31T21:34:43.396Z,6.80
2018-12-31T21:37:10.754Z,6.80
2018-12-31T21:39:38.430Z,6.80
2018-12-31T21:42:06.090Z,6.80
2018-12-31T21:44:33.404Z,6.70
2018-12-31T21:47:00.827Z,6.70
2018-12-31T21:49:28.094Z,6.80
2018-12-31T21:51:55.464Z,6.90
2018-12-31T21:54:23.069Z,6.80
2018-12-31T21:56:50.740Z,6.80
2018-12-31T21:59:17.973Z,6.70
2018-12-31T22:01:45.544Z,6.70
2018-12-31T22:04:12.869Z,6.70
2018-12-31T22:06:40.152Z,6.70
2018-12-31T22:09:07.654Z,6.80
2018-12-31T22:11:35.013Z,6.90
2018-12-31T22:14:02.636Z,6.90
2018-12-31T22:16:29.997Z,6.80
2018-12-31T22:18:57.250Z,6.80
2018-12-31T22:21:24.578Z,6.70
2018-12-31T22:23:52.242Z,6.70
2018-12-31T22:26:19.570Z,6.80
2018-12-31T22:28:46.820Z,6.90
2018-12-31T22:31:14.405Z,6.90
2018-12-31T22:33:42.065Z,6.90
2018-12-31T22:36:09.292Z,6.80
2018-12-31T22:38:36.653Z,6.80
2018-12-31T22:41:03.981Z,6.80
2018-12-31T22:43:31.370Z,6.70
2018-12-31T22:45:59.037Z,6.80
2018-12-31T22:48:26.393Z,6.90
2018-12-31T22:50:53.724Z,6.70
2018-12-31T22:53:21.412Z,6.60
2018-12-31T22:55:49.041Z,6.60
2018-12-31T22:58:16.294Z,6.50
2018-12-31T23:00:43.974Z,6.60
2018-12-31T23:03:11.429Z,6.60
2018-12-31T23:05:39.867Z,6.60
2018-12-31T23:08:07.317Z,6.60
2018-12-31T23:10:34.652Z,6.70
2018-12-31T23:13:01.921Z,6.70
2018-12-31T23:15:30.313Z,6.70
2018-12-31T23:17:57.674Z,6.70
2018-12-31T23:20:25.136Z,6.70
2018-12-31T23:22:52.481Z,6.70
2018-12-31T23:25:19.996Z,6.70
2018-12-31T23:27:47.331Z,6.70
2018-12-31T23:30:14.605Z,6.60
2018-12-31T23:32:41.986Z,6.60
2018-12-31T23:35:09.200Z,6.70
2018-12-31T23:37:38.681Z,6.60
2018-12-31T23:40:07.589Z,6.60
2018-12-31T23:42:34.969Z,6.60
2018-12-31T23:45:02.228Z,6.60
2018-12-31T23:47:29.573Z,6.70
2018-12-31T23:49:57.109Z,6.80
2018-12-31T23:52:24.784Z,6.80
2018-12-31T23:54:52.416Z,6.80
2018-12-31T23:57:19.662Z,6.80
2018-12-31T23:59:46.907Z,6.80
